Pagrindinis puslapis
METAR-TAF:

METAR-TAF

Oro uostai :

Santa Rosa, Argentina

platuma: 36-34S, ilguma: 064-16W, Aukštis: 190 m

Dabartinis oras

Ataskaita buvo paskelbta 21 valandos ir 51 minutes, ne 23:18 UTC
Vėjas 16 kt iš Pietų/Pietvakarių su gūsio iki 32 kt
Temperatūra 31°C
Drėgmė 11%
Slėgis 1003 hPa
Matomumas: 4000 m
Dulkes pustymas

METAR: SAZR 112318Z 20016G32KT 4000 BLDU NSC 31/M03 Q1003

Laikas: 18:09 (21:09 UTC)


TAF: trūkstamas

Orai ataskaitas ir orų prognozės (METAR, TAF).

turimą stotys yra geltonos ir raudonos taškus žemėlapyje.

Perkelti pele per norėdami pamatyti stoties vardą.

Tada spustelėkite, norėdami matyti oro stebėjimo ir prognozės.

Norėdami pakeisti žemėlapį: spustelėkite ant žalios mygtukų su juodo kryžiaus žemyn,; žalią mygtuką su brūkšneliu, jei norite nutolinti; arba žalių rodyklių gretimoms žemėlapius.


METAR-TAF: